createdAt,value
2022-12-02T00:04:19.698Z,2.50
2022-12-02T00:09:32.258Z,2.56
2022-12-02T00:14:35.589Z,2.54
2022-12-02T00:19:37.428Z,2.61
2022-12-02T00:24:39.257Z,2.64
2022-12-02T00:29:41.067Z,2.63
2022-12-02T00:34:42.840Z,2.72
2022-12-02T00:39:44.641Z,2.75
2022-12-02T00:45:09.652Z,2.78
2022-12-02T00:50:12.408Z,2.76
2022-12-02T00:55:14.292Z,2.77
2022-12-02T01:00:16.715Z,2.70
2022-12-02T01:05:18.931Z,2.63
2022-12-02T01:10:20.770Z,2.57
2022-12-02T01:15:22.570Z,2.56
2022-12-02T01:20:24.362Z,2.50
2022-12-02T01:25:26.190Z,2.49
2022-12-02T01:30:28.279Z,2.51
2022-12-02T01:35:30.515Z,2.48
2022-12-02T01:40:33.509Z,2.49
2022-12-02T01:45:35.738Z,2.44
2022-12-02T01:50:37.848Z,2.46
2022-12-02T01:55:39.969Z,2.47
2022-12-02T02:00:41.912Z,2.49
2022-12-02T02:05:43.853Z,2.48
2022-12-02T02:10:46.979Z,2.47
2022-12-02T02:15:49.875Z,2.52
2022-12-02T02:20:54.063Z,2.48
2022-12-02T02:26:00.208Z,2.41
2022-12-02T02:31:06.619Z,2.46
2022-12-02T02:36:12.897Z,2.41
2022-12-02T02:41:15.051Z,2.38
2022-12-02T02:46:17.073Z,2.36
2022-12-02T02:51:19.489Z,2.40
2022-12-02T02:56:21.518Z,2.44
2022-12-02T03:01:29.358Z,2.38
2022-12-02T03:06:34.005Z,2.33
2022-12-02T03:11:38.515Z,2.38
2022-12-02T03:16:40.565Z,2.34
2022-12-02T03:21:42.761Z,2.34
2022-12-02T03:26:45.728Z,2.27
2022-12-02T03:31:47.580Z,2.25
2022-12-02T03:36:49.539Z,2.19
2022-12-02T03:41:51.585Z,2.21
2022-12-02T03:46:53.480Z,2.20
2022-12-02T03:51:55.605Z,2.22
2022-12-02T03:56:57.591Z,2.22
2022-12-02T04:01:59.667Z,2.16
2022-12-02T04:07:01.664Z,2.10
2022-12-02T04:12:03.581Z,2.11
2022-12-02T04:17:08.322Z,2.06
2022-12-02T04:22:10.485Z,2.12
2022-12-02T04:27:12.263Z,2.03
2022-12-02T04:32:14.104Z,2.07
2022-12-02T04:37:15.909Z,2.05
2022-12-02T04:42:17.752Z,1.93
2022-12-02T04:47:19.529Z,1.95
2022-12-02T04:52:21.351Z,1.84
2022-12-02T04:57:26.696Z,1.63
2022-12-02T05:02:32.879Z,1.67
2022-12-02T05:07:34.794Z,1.62
2022-12-02T05:12:36.768Z,1.63
2022-12-02T05:17:42.119Z,1.53
2022-12-02T05:22:44.407Z,1.54
2022-12-02T05:27:47.833Z,1.50
2022-12-02T05:32:49.703Z,1.51
2022-12-02T05:37:51.551Z,1.54
2022-12-02T05:42:53.427Z,1.54
2022-12-02T05:47:55.473Z,1.61
2022-12-02T05:52:57.259Z,1.56
2022-12-02T05:58:01.868Z,1.50
2022-12-02T06:03:08.681Z,1.55
2022-12-02T06:08:15.751Z,1.60
2022-12-02T06:13:23.469Z,1.67
2022-12-02T06:18:32.528Z,1.73
2022-12-02T06:23:34.367Z,1.64
2022-12-02T06:28:38.400Z,1.54
2022-12-02T06:33:41.559Z,1.59
2022-12-02T06:39:20.337Z,1.60
2022-12-02T06:44:43.653Z,1.60
2022-12-02T06:49:45.476Z,1.59
2022-12-02T06:54:47.886Z,1.58
2022-12-02T06:59:52.023Z,1.59
2022-12-02T07:04:55.343Z,1.55
2022-12-02T07:10:00.029Z,1.57
2022-12-02T07:15:20.563Z,1.65
2022-12-02T07:20:37.762Z,1.77
2022-12-02T07:25:44.242Z,1.83
2022-12-02T07:30:55.995Z,1.87
2022-12-02T07:35:57.892Z,1.92
2022-12-02T07:40:59.696Z,1.92
2022-12-02T07:46:02.094Z,1.92
2022-12-02T07:51:04.113Z,1.93
2022-12-02T07:56:06.363Z,1.97
2022-12-02T08:01:08.186Z,2.01
2022-12-02T08:06:09.971Z,1.92
2022-12-02T08:11:11.780Z,1.89
2022-12-02T08:16:13.672Z,1.95
2022-12-02T08:21:15.423Z,1.99
2022-12-02T08:26:17.202Z,1.91
2022-12-02T08:31:19.104Z,1.93
2022-12-02T08:36:21.795Z,1.90
2022-12-02T08:41:23.568Z,1.96
2022-12-02T08:46:26.582Z,1.96
2022-12-02T08:51:30.868Z,1.97
2022-12-02T08:56:32.730Z,2.00
2022-12-02T09:01:34.668Z,1.98
2022-12-02T09:06:36.724Z,2.02
2022-12-02T09:11:38.727Z,2.08
2022-12-02T09:16:40.615Z,2.06
2022-12-02T09:21:42.478Z,2.05
2022-12-02T09:26:44.289Z,2.06
2022-12-02T09:31:46.120Z,2.02
2022-12-02T09:36:48.108Z,2.01
2022-12-02T09:41:50.113Z,2.01
2022-12-02T09:46:52.136Z,2.07
2022-12-02T09:52:00.440Z,2.12
2022-12-02T09:57:02.299Z,2.14
2022-12-02T10:02:06.473Z,2.08
2022-12-02T10:07:10.075Z,2.06
2022-12-02T10:12:12.015Z,2.11
2022-12-02T10:17:19.487Z,2.19
2022-12-02T10:22:22.211Z,2.28
2022-12-02T10:27:24.098Z,2.27
2022-12-02T10:32:28.119Z,2.21
2022-12-02T10:37:34.192Z,2.19
2022-12-02T10:42:36.499Z,2.21
2022-12-02T10:47:38.433Z,2.32
2022-12-02T10:52:49.833Z,2.40
2022-12-02T10:57:51.760Z,2.37
2022-12-02T11:02:58.978Z,2.36
2022-12-02T11:08:06.764Z,2.25
2022-12-02T11:13:13.180Z,2.15
2022-12-02T11:18:30.632Z,2.11
2022-12-02T11:23:34.433Z,2.09
2022-12-02T11:29:06.204Z,2.11
2022-12-02T11:34:25.717Z,2.17
2022-12-02T11:39:42.820Z,2.20
2022-12-02T11:44:44.608Z,2.19
2022-12-02T11:49:46.402Z,2.22
2022-12-02T11:55:00.629Z,2.27
2022-12-02T12:00:02.764Z,2.31
2022-12-02T12:05:13.997Z,2.33
2022-12-02T12:10:32.372Z,2.29
2022-12-02T12:15:52.329Z,2.28
2022-12-02T12:20:54.076Z,2.27
2022-12-02T12:25:55.838Z,2.29
2022-12-02T12:31:00.303Z,2.22
2022-12-02T12:36:02.411Z,2.18
2022-12-02T12:41:04.224Z,2.15
2022-12-02T12:46:06.305Z,2.12
2022-12-02T12:51:09.489Z,2.07
2022-12-02T12:56:11.364Z,2.05
2022-12-02T13:01:13.451Z,2.08
2022-12-02T13:06:15.463Z,2.09
2022-12-02T13:11:17.303Z,2.13
2022-12-02T13:16:19.122Z,2.12
2022-12-02T13:21:21.000Z,2.14
2022-12-02T13:26:22.892Z,2.12
2022-12-02T13:31:24.845Z,2.14
2022-12-02T13:36:26.846Z,2.05
2022-12-02T13:41:28.612Z,2.10
2022-12-02T13:46:30.874Z,2.07
2022-12-02T13:51:32.754Z,2.10
2022-12-02T13:56:34.559Z,2.01
2022-12-02T14:01:36.397Z,1.88
2022-12-02T14:06:38.224Z,1.84
2022-12-02T14:11:40.706Z,1.86
2022-12-02T14:16:42.622Z,1.93
2022-12-02T14:21:44.406Z,1.88
2022-12-02T14:26:46.193Z,1.84
2022-12-02T14:31:48.072Z,1.82
2022-12-02T14:36:49.903Z,1.80
2022-12-02T14:41:51.844Z,1.82
2022-12-02T14:46:53.684Z,1.82
2022-12-02T14:51:55.508Z,1.78
2022-12-02T14:56:57.354Z,1.74
2022-12-02T15:01:59.424Z,1.68
2022-12-02T15:07:01.491Z,1.61
2022-12-02T15:12:03.448Z,1.64
2022-12-02T15:17:05.329Z,1.70
2022-12-02T15:22:07.241Z,1.69
2022-12-02T15:27:09.042Z,1.67
2022-12-02T15:32:15.785Z,1.70
2022-12-02T15:37:20.781Z,1.57
2022-12-02T15:42:22.732Z,1.58
2022-12-02T15:47:24.544Z,1.54
2022-12-02T15:52:26.602Z,1.49
2022-12-02T15:57:28.471Z,1.44
2022-12-02T16:02:30.323Z,1.37
2022-12-02T16:07:32.464Z,1.21
2022-12-02T16:12:34.502Z,1.29
2022-12-02T16:17:36.988Z,1.26
2022-12-02T16:22:38.828Z,1.25
2022-12-02T16:27:40.624Z,1.25
2022-12-02T16:32:42.434Z,1.21
2022-12-02T16:37:44.323Z,1.24
2022-12-02T16:42:46.643Z,1.28
2022-12-02T16:47:48.412Z,1.38
2022-12-02T16:52:50.229Z,1.42
2022-12-02T16:57:52.085Z,1.43
2022-12-02T17:02:53.923Z,1.46
2022-12-02T17:07:55.884Z,1.38
2022-12-02T17:12:57.731Z,1.33
2022-12-02T17:17:59.600Z,1.32
2022-12-02T17:23:01.445Z,1.31
2022-12-02T17:28:03.377Z,1.27
2022-12-02T17:33:05.267Z,1.25
2022-12-02T17:38:07.210Z,1.32
2022-12-02T17:43:09.167Z,1.32
2022-12-02T17:48:11.183Z,1.22
2022-12-02T17:53:13.061Z,1.20
2022-12-02T17:58:14.972Z,1.21
2022-12-02T18:03:16.879Z,1.25
2022-12-02T18:08:20.320Z,1.25
2022-12-02T18:13:22.144Z,1.30
2022-12-02T18:18:23.931Z,1.31
2022-12-02T18:23:27.815Z,1.35
2022-12-02T18:28:29.930Z,1.37
2022-12-02T18:33:31.845Z,1.34
2022-12-02T18:38:33.975Z,1.35
2022-12-02T18:43:36.711Z,1.35
2022-12-02T18:48:38.661Z,1.30
2022-12-02T18:53:40.514Z,1.19
2022-12-02T18:58:42.366Z,1.16
2022-12-02T19:03:44.213Z,1.22
2022-12-02T19:08:46.095Z,1.22
2022-12-02T19:13:47.922Z,1.23
2022-12-02T19:18:50.625Z,1.22
2022-12-02T19:23:52.437Z,1.13
2022-12-02T19:28:54.247Z,1.05
2022-12-02T19:33:56.023Z,1.08
2022-12-02T19:38:57.812Z,1.10
2022-12-02T19:44:03.680Z,1.12
2022-12-02T19:49:06.092Z,1.15
2022-12-02T19:54:07.927Z,1.16
2022-12-02T19:59:10.656Z,1.21
2022-12-02T20:04:39.553Z,1.24
2022-12-02T20:09:34.430Z,1.27
2022-12-02T20:14:36.447Z,1.25
2022-12-02T20:19:38.331Z,1.28
2022-12-02T20:24:40.212Z,1.31
2022-12-02T20:29:42.041Z,1.31
2022-12-02T20:34:44.499Z,1.33
2022-12-02T20:39:46.303Z,1.38
2022-12-02T20:44:52.342Z,1.45
2022-12-02T20:49:54.680Z,1.51
2022-12-02T20:54:56.593Z,1.58
2022-12-02T20:59:58.651Z,1.60
2022-12-02T21:05:00.466Z,1.61
2022-12-02T21:10:02.321Z,1.68
2022-12-02T21:15:04.658Z,1.70
2022-12-02T21:20:07.358Z,1.74
2022-12-02T21:25:09.262Z,1.73
2022-12-02T21:30:12.078Z,1.72
2022-12-02T21:35:14.168Z,1.68
2022-12-02T21:40:17.363Z,1.65
2022-12-02T21:45:19.295Z,1.64
2022-12-02T21:50:21.197Z,1.65
2022-12-02T21:55:22.978Z,1.62
2022-12-02T22:00:24.937Z,1.66
2022-12-02T22:05:26.732Z,1.68
2022-12-02T22:10:28.595Z,1.71
2022-12-02T22:15:30.398Z,1.73
2022-12-02T22:20:32.220Z,1.71
2022-12-02T22:25:34.060Z,1.75
2022-12-02T22:30:35.988Z,1.81
2022-12-02T22:35:38.583Z,1.81
2022-12-02T22:40:40.406Z,1.78
2022-12-02T22:45:42.248Z,1.78
2022-12-02T22:50:44.162Z,1.77
2022-12-02T22:55:46.653Z,1.75
2022-12-02T23:00:48.524Z,1.78
2022-12-02T23:05:50.418Z,1.84
2022-12-02T23:10:52.230Z,1.82
2022-12-02T23:15:54.089Z,1.85
2022-12-02T23:20:55.924Z,1.85
2022-12-02T23:25:57.741Z,1.85
2022-12-02T23:30:59.660Z,1.87
2022-12-02T23:36:01.470Z,1.89
2022-12-02T23:41:03.311Z,1.94
2022-12-02T23:46:05.400Z,1.95
2022-12-02T23:51:07.343Z,1.94
2022-12-02T23:56:09.151Z,2.00
